OOCL Nagoya — VRFX8 — position and weather

sailwx.info

Track history (hours):
 
Tides and Currents Weather Stations Pressure Air Temp Water Temp Dewpoint Dewpoint Depression Visibility Wind Speed Wind Dir Waves Ship Positions

OOCL Nagoya

Last reported at 2016-Jun-26 11:22 UTC. Time now 2016-Jun-26 12:02 UTC.
Position N 22°34' E 120°18'.

Length 261 m; draft 9.4 m.

Type: Cargo ship. MMSI: 477627900.

Date/timePositionNaut miles runAvg speedWind from/ knotsBaromVisibWave heightAir tempDewpointWater temp
2016-Jun-26 11:22N 22°34' E 120°18'0 0.0
2016-Jun-26 10:28N 22°34' E 120°18'0 0.0
2016-Jun-26 09:22N 22°34' E 120°18'0 0.0
2016-Jun-26 08:28N 22°34' E 120°18'0 0.0
2016-Jun-26 07:28N 22°34' E 120°18'0 0.0
2016-Jun-26 06:28N 22°34' E 120°18'0 0.0
2016-Jun-26 05:28N 22°34' E 120°18'103 7.8
2016-Jun-25 16:18N 24°17' E 120°09'  
2016-Jun-23 10:04N 33°53' E 134°56'816.1
2016-Jun-23 09:33N 34°01' E 134°55'1514.9
2016-Jun-23 08:33N 34°16' E 134°58'1919.2
2016-Jun-23 07:33N 34°32' E 135°11'8 3.8
2016-Jun-23 05:27N 34°39' E 135°14'0 0.0
2016-Jun-23 04:33N 34°39' E 135°14'0 0.0
2016-Jun-23 03:33N 34°39' E 135°14'0 0.0
2016-Jun-23 02:33N 34°39' E 135°14'0 0.0
2016-Jun-23 01:33N 34°39' E 135°14'0 0.0
2016-Jun-23 00:33N 34°39' E 135°14'0 0.0
2016-Jun-22 23:33N 34°39' E 135°14'1 0.9
2016-Jun-22 22:33N 34°39' E 135°15'1111.1
2016-Jun-22 21:33N 34°29' E 135°10'1818.1
2016-Jun-22 20:33N 34°14' E 134°59'1211.6
2016-Jun-22 19:34N 34°02' E 134°59'231 4.8
2016-Jun-20 19:33N 34°59' E 139°31'1616.3
2016-Jun-20 18:33N 35°10' E 139°45'1211.7
2016-Jun-20 17:34N 35°22' E 139°42'1313.2
2016-Jun-20 16:34N 35°33' E 139°50'4 3.5
2016-Jun-20 15:30N 35°36' E 139°47'0 0.0
2016-Jun-20 14:33N 35°36' E 139°47'0 0.0
2016-Jun-20 13:33N 35°36' E 139°47'0 0.0
2016-Jun-20 12:33N 35°36' E 139°47'0 0.0
2016-Jun-20 11:33N 35°36' E 139°47'0 0.0
2016-Jun-20 10:33N 35°36' E 139°47'0 0.0
2016-Jun-20 09:33N 35°36' E 139°47'0 0.0
2016-Jun-20 08:33N 35°36' E 139°47'0 0.0
2016-Jun-20 07:30N 35°36' E 139°47'0 0.0
2016-Jun-20 06:30N 35°36' E 139°47'0 0.0
2016-Jun-20 05:33N 35°36' E 139°47'0 0.0
2016-Jun-20 04:33N 35°36' E 139°47'0 0.0
2016-Jun-20 03:34N 35°36' E 139°47'8 8.3
2016-Jun-20 02:34N 35°29' E 139°52'1312.9
2016-Jun-20 01:33N 35°17' E 139°45'1111.3
2016-Jun-20 00:33N 35°06' E 139°45'1412.1
2016-Jun-19 23:23N 34°57' E 139°32'1215.0
2016-Jun-19 22:33N 34°49' E 139°20'  
2016-Jun-16 18:11N 24°02' E 118°39'1015.5
2016-Jun-16 17:31N 23°56' E 118°29'3114.9
2016-Jun-16 15:24N 23°40' E 117°60'  
Track history (hours):
 
Tides and Currents Weather Stations Pressure Air Temp Water Temp Dewpoint Dewpoint Depression Visibility Wind Speed Wind Dir Waves Ship Positions

OOCL Nagoya

Last reported at 2016-Jun-26 11:22 UTC. Time now 2016-Jun-26 12:02 UTC.
Position N 22°34' E 120°18'.

Length 261 m; draft 9.4 m.

Type: Cargo ship. MMSI: 477627900.

Date/timePositionNaut miles runAvg speedWind from/ knotsBaromVisibWave heightAir tempDewpointWater temp
2016-Jun-26 11:22N 22°34' E 120°18'0 0.0
2016-Jun-26 10:28N 22°34' E 120°18'0 0.0
2016-Jun-26 09:22N 22°34' E 120°18'0 0.0
2016-Jun-26 08:28N 22°34' E 120°18'0 0.0
2016-Jun-26 07:28N 22°34' E 120°18'0 0.0
2016-Jun-26 06:28N 22°34' E 120°18'0 0.0
2016-Jun-26 05:28N 22°34' E 120°18'103 7.8
2016-Jun-25 16:18N 24°17' E 120°09'  
2016-Jun-23 10:04N 33°53' E 134°56'816.1
2016-Jun-23 09:33N 34°01' E 134°55'1514.9
2016-Jun-23 08:33N 34°16' E 134°58'1919.2
2016-Jun-23 07:33N 34°32' E 135°11'8 3.8
2016-Jun-23 05:27N 34°39' E 135°14'0 0.0
2016-Jun-23 04:33N 34°39' E 135°14'0 0.0
2016-Jun-23 03:33N 34°39' E 135°14'0 0.0
2016-Jun-23 02:33N 34°39' E 135°14'0 0.0
2016-Jun-23 01:33N 34°39' E 135°14'0 0.0
2016-Jun-23 00:33N 34°39' E 135°14'0 0.0
2016-Jun-22 23:33N 34°39' E 135°14'1 0.9
2016-Jun-22 22:33N 34°39' E 135°15'1111.1
2016-Jun-22 21:33N 34°29' E 135°10'1818.1
2016-Jun-22 20:33N 34°14' E 134°59'1211.6
2016-Jun-22 19:34N 34°02' E 134°59'231 4.8
2016-Jun-20 19:33N 34°59' E 139°31'1616.3
2016-Jun-20 18:33N 35°10' E 139°45'1211.7
2016-Jun-20 17:34N 35°22' E 139°42'1313.2
2016-Jun-20 16:34N 35°33' E 139°50'4 3.5
2016-Jun-20 15:30N 35°36' E 139°47'0 0.0
2016-Jun-20 14:33N 35°36' E 139°47'0 0.0
2016-Jun-20 13:33N 35°36' E 139°47'0 0.0
2016-Jun-20 12:33N 35°36' E 139°47'0 0.0
2016-Jun-20 11:33N 35°36' E 139°47'0 0.0
2016-Jun-20 10:33N 35°36' E 139°47'0 0.0
2016-Jun-20 09:33N 35°36' E 139°47'0 0.0
2016-Jun-20 08:33N 35°36' E 139°47'0 0.0
2016-Jun-20 07:30N 35°36' E 139°47'0 0.0
2016-Jun-20 06:30N 35°36' E 139°47'0 0.0
2016-Jun-20 05:33N 35°36' E 139°47'0 0.0
2016-Jun-20 04:33N 35°36' E 139°47'0 0.0
2016-Jun-20 03:34N 35°36' E 139°47'8 8.3
2016-Jun-20 02:34N 35°29' E 139°52'1312.9
2016-Jun-20 01:33N 35°17' E 139°45'1111.3
2016-Jun-20 00:33N 35°06' E 139°45'1412.1
2016-Jun-19 23:23N 34°57' E 139°32'1215.0
2016-Jun-19 22:33N 34°49' E 139°20'  
2016-Jun-16 18:11N 24°02' E 118°39'1015.5
2016-Jun-16 17:31N 23°56' E 118°29'3114.9
2016-Jun-16 15:24N 23°40' E 117°60'  

Dump ship's entire track history